createdAt,value
2019-02-28T00:00:17.663Z,72.67
2019-02-28T00:01:17.687Z,73.64
2019-02-28T00:02:21.191Z,74.05
2019-02-28T00:03:17.600Z,75.01
2019-02-28T00:04:17.589Z,76.70
2019-02-28T00:05:17.571Z,76.50
2019-02-28T00:06:17.624Z,77.11
2019-02-28T00:07:17.922Z,77.11
2019-02-28T00:08:17.565Z,77.32
2019-02-28T00:09:17.538Z,77.32
2019-02-28T00:10:17.544Z,76.67
2019-02-28T00:11:17.517Z,77.32
2019-02-28T00:12:17.530Z,76.90
2019-02-28T00:13:21.423Z,76.46
2019-02-28T00:14:17.482Z,76.35
2019-02-28T00:15:17.465Z,76.46
2019-02-28T00:16:17.457Z,76.67
2019-02-28T00:17:17.516Z,76.94
2019-02-28T00:18:17.520Z,76.87
2019-02-28T00:19:17.431Z,75.18
2019-02-28T00:20:17.418Z,74.46
2019-02-28T00:21:17.466Z,74.43
2019-02-28T00:22:17.401Z,74.36
2019-02-28T00:23:19.212Z,74.77
2019-02-28T00:24:17.494Z,74.77
2019-02-28T00:25:17.350Z,74.46
2019-02-28T00:26:17.399Z,74.57
2019-02-28T00:27:20.963Z,74.46
2019-02-28T00:28:17.463Z,74.77
2019-02-28T00:29:17.345Z,74.46
2019-02-28T00:30:17.394Z,74.74
2019-02-28T00:31:17.319Z,74.12
2019-02-28T00:32:17.309Z,74.12
2019-02-28T00:33:17.266Z,74.02
2019-02-28T00:34:17.295Z,74.12
2019-02-28T00:35:17.247Z,74.12
2019-02-28T00:36:19.298Z,74.02
2019-02-28T00:37:17.247Z,74.63
2019-02-28T00:38:17.210Z,74.88
2019-02-28T00:39:17.236Z,74.53
2019-02-28T00:40:17.201Z,74.43
2019-02-28T00:41:17.199Z,74.67
2019-02-28T00:42:17.678Z,74.63
2019-02-28T00:43:17.209Z,74.84
2019-02-28T00:44:17.179Z,74.74
2019-02-28T00:45:17.188Z,74.67
2019-02-28T00:46:17.245Z,75.09
2019-02-28T00:47:17.189Z,75.29
2019-02-28T00:48:18.234Z,74.84
2019-02-28T00:49:17.135Z,75.18
2019-02-28T00:50:17.096Z,75.26
2019-02-28T00:51:17.081Z,75.39
2019-02-28T00:52:17.070Z,75.29
2019-02-28T00:53:17.093Z,75.70
2019-02-28T00:54:17.092Z,75.81
2019-02-28T00:55:17.028Z,75.81
2019-02-28T00:56:17.812Z,76.53
2019-02-28T00:57:17.007Z,76.42
2019-02-28T00:58:17.033Z,76.35
2019-02-28T00:59:16.985Z,76.77
2019-02-28T01:00:17.001Z,76.56
2019-02-28T01:01:16.965Z,76.87
2019-02-28T01:02:17.659Z,76.87
2019-02-28T01:03:16.951Z,77.28
2019-02-28T01:04:16.947Z,76.46
2019-02-28T01:05:16.987Z,76.87
2019-02-28T01:06:16.905Z,76.77
2019-02-28T01:07:17.023Z,76.87
2019-02-28T01:08:19.107Z,77.08
2019-02-28T01:09:17.878Z,76.63
2019-02-28T01:10:16.957Z,76.46
2019-02-28T01:11:16.857Z,76.67
2019-02-28T01:12:19.346Z,77.18
2019-02-28T01:13:16.836Z,77.70
2019-02-28T01:14:16.836Z,76.98
2019-02-28T01:15:16.827Z,77.28
2019-02-28T01:16:19.323Z,76.98
2019-02-28T01:17:16.798Z,77.04
2019-02-28T01:18:16.795Z,77.39
2019-02-28T01:19:16.839Z,77.39
2019-02-28T01:20:16.868Z,77.59
2019-02-28T01:21:16.819Z,77.91
2019-02-28T01:22:16.742Z,77.80
2019-02-28T01:23:16.739Z,78.11
2019-02-28T01:24:16.712Z,77.39
2019-02-28T01:25:16.704Z,78.31
2019-02-28T01:26:16.720Z,78.11
2019-02-28T01:27:17.377Z,78.42
2019-02-28T01:28:16.681Z,78.31
2019-02-28T01:29:16.668Z,77.49
2019-02-28T01:30:16.715Z,77.70
2019-02-28T01:31:16.723Z,77.59
2019-02-28T01:32:16.656Z,77.80
2019-02-28T01:33:16.664Z,78.25
2019-02-28T01:34:16.601Z,78.35
2019-02-28T01:35:16.688Z,77.91
2019-02-28T01:36:16.641Z,78.14
2019-02-28T01:37:16.590Z,78.45
2019-02-28T01:38:16.599Z,78.35
2019-02-28T01:39:16.551Z,78.35
2019-02-28T01:40:16.574Z,79.38
2019-02-28T01:41:16.572Z,79.49
2019-02-28T01:42:19.970Z,79.38
2019-02-28T01:43:16.505Z,79.28
2019-02-28T01:44:16.512Z,79.18
2019-02-28T01:45:16.526Z,79.18
2019-02-28T01:46:17.208Z,79.49
2019-02-28T01:47:19.953Z,79.28
2019-02-28T01:48:16.455Z,79.49
2019-02-28T01:49:16.454Z,80.11
2019-02-28T01:50:16.459Z,79.59
2019-02-28T01:51:16.445Z,80.11
2019-02-28T01:52:16.472Z,80.21
2019-02-28T01:53:19.571Z,79.90
2019-02-28T01:54:17.464Z,79.80
2019-02-28T01:55:16.384Z,80.21
2019-02-28T01:56:16.372Z,80.00
2019-02-28T01:57:16.420Z,79.49
2019-02-28T01:58:17.384Z,79.90
2019-02-28T01:59:16.401Z,80.21
2019-02-28T02:00:16.348Z,80.21
2019-02-28T02:01:16.314Z,79.90
2019-02-28T02:02:16.303Z,80.25
2019-02-28T02:03:16.418Z,80.35
2019-02-28T02:04:16.283Z,80.87
2019-02-28T02:05:17.303Z,80.97
2019-02-28T02:06:16.275Z,80.15
2019-02-28T02:07:16.287Z,81.38
2019-02-28T02:08:16.307Z,81.18
2019-02-28T02:09:16.228Z,80.66
2019-02-28T02:10:17.605Z,81.18
2019-02-28T02:11:16.270Z,81.28
2019-02-28T02:12:16.192Z,80.76
2019-02-28T02:13:16.274Z,80.97
2019-02-28T02:14:16.179Z,81.18
2019-02-28T02:15:16.887Z,81.38
2019-02-28T02:16:16.149Z,80.76
2019-02-28T02:17:16.215Z,81.80
2019-02-28T02:18:16.141Z,81.38
2019-02-28T02:19:18.550Z,81.49
2019-02-28T02:20:16.103Z,81.63
2019-02-28T02:21:16.150Z,81.73
2019-02-28T02:22:16.174Z,81.63
2019-02-28T02:23:18.210Z,81.94
2019-02-28T02:24:16.183Z,82.66
2019-02-28T02:25:16.088Z,82.15
2019-02-28T02:26:16.073Z,82.76
2019-02-28T02:27:16.253Z,82.56
2019-02-28T02:28:16.091Z,82.80
2019-02-28T02:29:16.070Z,83.32
2019-02-28T02:30:16.326Z,83.01
2019-02-28T02:31:15.994Z,83.11
2019-02-28T02:32:15.995Z,83.22
2019-02-28T02:33:16.002Z,83.67
2019-02-28T02:34:15.993Z,83.84
2019-02-28T02:35:15.963Z,83.84
2019-02-28T02:36:17.520Z,83.63
2019-02-28T02:37:15.949Z,83.53
2019-02-28T02:38:15.917Z,83.53
2019-02-28T02:39:17.590Z,83.94
2019-02-28T02:40:15.952Z,84.05
2019-02-28T02:41:15.878Z,83.94
2019-02-28T02:42:15.916Z,84.05
2019-02-28T02:43:15.869Z,84.19
2019-02-28T02:44:15.869Z,83.94
2019-02-28T02:45:15.868Z,83.63
2019-02-28T02:46:20.185Z,84.15
2019-02-28T02:47:16.821Z,83.53
2019-02-28T02:48:15.836Z,83.53
2019-02-28T02:49:19.902Z,84.05
2019-02-28T02:50:15.825Z,83.94
2019-02-28T02:51:15.774Z,85.28
2019-02-28T02:52:15.776Z,84.05
2019-02-28T02:53:15.756Z,83.98
2019-02-28T02:54:19.694Z,84.08
2019-02-28T02:55:15.804Z,83.87
2019-02-28T02:56:15.738Z,84.33
2019-02-28T02:57:15.851Z,84.01
2019-02-28T02:58:15.693Z,85.16
2019-02-28T02:59:15.717Z,85.05
2019-02-28T03:00:15.778Z,85.63
2019-02-28T03:01:15.660Z,85.42
2019-02-28T03:02:15.671Z,84.91
2019-02-28T03:03:15.647Z,84.60
2019-02-28T03:04:21.447Z,85.02
2019-02-28T03:05:16.669Z,85.32
2019-02-28T03:06:15.627Z,84.19
2019-02-28T03:07:23.318Z,84.91
2019-02-28T03:08:16.594Z,84.70
2019-02-28T03:09:15.589Z,85.32
2019-02-28T03:10:17.290Z,84.81
2019-02-28T03:11:15.579Z,85.22
2019-02-28T03:12:15.572Z,84.60
2019-02-28T03:13:15.537Z,84.60
2019-02-28T03:14:17.315Z,85.22
2019-02-28T03:15:15.515Z,84.84
2019-02-28T03:16:15.587Z,85.16
2019-02-28T03:17:15.485Z,84.84
2019-02-28T03:18:20.576Z,85.47
2019-02-28T03:19:16.475Z,85.57
2019-02-28T03:20:15.461Z,85.57
2019-02-28T03:21:16.506Z,85.57
2019-02-28T03:22:15.518Z,85.47
2019-02-28T03:23:15.446Z,85.68
2019-02-28T03:24:16.429Z,85.68
2019-02-28T03:25:15.410Z,85.88
2019-02-28T03:26:15.453Z,85.88
2019-02-28T03:27:19.083Z,86.91
2019-02-28T03:28:15.371Z,86.40
2019-02-28T03:29:15.397Z,85.99
2019-02-28T03:30:26.044Z,86.19
2019-02-28T03:31:16.405Z,86.81
2019-02-28T03:32:15.400Z,86.40
2019-02-28T03:33:27.393Z,86.91
2019-02-28T03:34:16.369Z,87.12
2019-02-28T03:35:15.308Z,86.54
2019-02-28T03:36:16.711Z,86.65
2019-02-28T03:37:15.297Z,86.65
2019-02-28T03:38:15.319Z,87.06
2019-02-28T03:39:15.283Z,86.85
2019-02-28T03:40:15.252Z,87.37
2019-02-28T03:41:17.758Z,86.89
2019-02-28T03:42:15.233Z,88.24
2019-02-28T03:43:15.295Z,87.93
2019-02-28T03:44:19.803Z,87.27
2019-02-28T03:45:16.238Z,86.58
2019-02-28T03:46:15.197Z,88.03
2019-02-28T03:47:15.165Z,87.62
2019-02-28T03:48:15.178Z,87.51
2019-02-28T03:49:15.208Z,88.03
2019-02-28T03:50:15.170Z,87.82
2019-02-28T03:51:15.138Z,88.34
2019-02-28T03:52:15.127Z,87.82
2019-02-28T03:53:19.232Z,87.72
2019-02-28T03:54:16.212Z,88.65
2019-02-28T03:55:15.114Z,87.82
2019-02-28T03:56:16.029Z,88.03
2019-02-28T03:57:15.055Z,88.18
2019-02-28T03:58:15.078Z,88.96
2019-02-28T03:59:18.933Z,89.31
2019-02-28T04:00:16.092Z,89.00
2019-02-28T04:01:15.004Z,89.00
2019-02-28T04:02:20.801Z,89.31
2019-02-28T04:03:16.687Z,89.00
2019-02-28T04:04:14.969Z,88.90
2019-02-28T04:05:14.977Z,89.83
2019-02-28T04:06:14.950Z,89.31
2019-02-28T04:07:15.983Z,89.83
2019-02-28T04:08:14.989Z,89.21
2019-02-28T04:09:14.961Z,89.83
2019-02-28T04:10:16.787Z,89.31
2019-02-28T04:11:15.921Z,89.62
2019-02-28T04:12:14.937Z,89.21
2019-02-28T04:13:19.310Z,89.21
2019-02-28T04:14:15.986Z,89.83
2019-02-28T04:15:14.879Z,89.48
2019-02-28T04:16:14.918Z,89.42
2019-02-28T04:17:14.857Z,89.11
2019-02-28T04:18:14.830Z,89.31
2019-02-28T04:19:21.209Z,89.42
2019-02-28T04:20:15.888Z,88.90
2019-02-28T04:21:14.803Z,89.42
2019-02-28T04:22:14.851Z,89.00
2019-02-28T04:23:14.773Z,89.83
2019-02-28T04:24:14.768Z,89.21
2019-02-28T04:25:14.842Z,89.62
2019-02-28T04:26:14.829Z,89.21
2019-02-28T04:27:14.737Z,89.62
2019-02-28T04:28:18.718Z,89.94
2019-02-28T04:29:14.763Z,90.04
2019-02-28T04:30:14.698Z,89.62
2019-02-28T04:31:18.725Z,89.21
2019-02-28T04:32:15.681Z,89.62
2019-02-28T04:33:14.663Z,89.21
2019-02-28T04:34:14.711Z,89.31
2019-02-28T04:35:14.640Z,89.42
2019-02-28T04:36:14.690Z,89.62
2019-02-28T04:37:14.619Z,89.73
2019-02-28T04:38:14.611Z,88.90
2019-02-28T04:39:14.619Z,89.00
2019-02-28T04:40:14.627Z,88.65
2019-02-28T04:41:14.670Z,89.28
2019-02-28T04:42:14.565Z,88.90
2019-02-28T04:43:14.564Z,88.65
2019-02-28T04:44:15.364Z,89.21
2019-02-28T04:45:14.554Z,89.11
2019-02-28T04:46:15.376Z,89.62
2019-02-28T04:47:14.622Z,89.21
2019-02-28T04:48:14.692Z,88.69
2019-02-28T04:49:14.500Z,89.62
2019-02-28T04:50:14.538Z,89.58
2019-02-28T04:51:14.506Z,89.17
2019-02-28T04:52:14.453Z,89.31
2019-02-28T04:53:14.440Z,89.17
2019-02-28T04:54:14.500Z,89.17
2019-02-28T04:55:14.542Z,88.90
2019-02-28T04:56:14.453Z,89.07
2019-02-28T04:57:17.426Z,89.07
2019-02-28T04:58:15.503Z,89.28
2019-02-28T04:59:14.400Z,89.11
2019-02-28T05:00:14.379Z,89.31
2019-02-28T05:01:14.406Z,88.96
2019-02-28T05:02:19.616Z,88.86
2019-02-28T05:03:15.334Z,89.11
2019-02-28T05:04:14.349Z,89.21
2019-02-28T05:05:14.345Z,89.73
2019-02-28T05:06:14.315Z,89.11
2019-02-28T05:07:14.317Z,89.31
2019-02-28T05:08:14.281Z,89.00
2019-02-28T05:09:15.114Z,89.15
2019-02-28T05:10:14.290Z,89.77
2019-02-28T05:11:14.296Z,89.21
2019-02-28T05:12:14.403Z,89.21
2019-02-28T05:13:14.946Z,89.21
2019-02-28T05:14:14.208Z,89.21
2019-02-28T05:15:14.275Z,89.62
2019-02-28T05:16:14.224Z,89.21
2019-02-28T05:17:14.293Z,90.04
2019-02-28T05:18:14.174Z,89.42
2019-02-28T05:19:14.185Z,89.42
2019-02-28T05:20:14.150Z,89.87
2019-02-28T05:21:16.472Z,89.98
2019-02-28T05:22:15.184Z,89.25
2019-02-28T05:23:14.115Z,90.19
2019-02-28T05:24:14.132Z,90.39
2019-02-28T05:25:17.796Z,89.98
2019-02-28T05:26:14.083Z,89.98
2019-02-28T05:27:14.067Z,89.36
2019-02-28T05:28:14.129Z,89.56
2019-02-28T05:29:14.055Z,89.77
2019-02-28T05:30:17.987Z,90.50
2019-02-28T05:31:15.043Z,89.98
2019-02-28T05:32:14.080Z,89.25
2019-02-28T05:33:14.889Z,89.77
2019-02-28T05:34:15.963Z,89.98
2019-02-28T05:35:14.039Z,90.39
2019-02-28T05:36:14.011Z,89.77
2019-02-28T05:37:13.965Z,89.56
2019-02-28T05:38:14.071Z,89.77
2019-02-28T05:39:14.010Z,90.44
2019-02-28T05:40:13.941Z,90.44
2019-02-28T05:41:15.345Z,90.54
2019-02-28T05:42:13.967Z,90.64
2019-02-28T05:43:13.934Z,90.64
2019-02-28T05:44:13.899Z,90.54
2019-02-28T05:45:14.889Z,90.54
2019-02-28T05:46:13.891Z,90.23
2019-02-28T05:47:13.886Z,90.54
2019-02-28T05:48:13.887Z,90.33
2019-02-28T05:49:13.864Z,90.75
2019-02-28T05:50:16.598Z,90.44
2019-02-28T05:51:13.868Z,90.85
2019-02-28T05:52:13.805Z,90.54
2019-02-28T05:53:13.832Z,90.95
2019-02-28T05:54:16.931Z,90.69
2019-02-28T05:55:13.774Z,91.00
2019-02-28T05:56:13.777Z,90.95
2019-02-28T05:57:13.745Z,90.79
2019-02-28T05:58:17.573Z,91.10
2019-02-28T05:59:13.725Z,90.79
2019-02-28T06:00:13.803Z,91.06
2019-02-28T06:01:13.748Z,91.31
2019-02-28T06:02:13.703Z,91.27
2019-02-28T06:03:13.705Z,90.95
2019-02-28T06:04:13.679Z,91.06
2019-02-28T06:05:13.685Z,91.27
2019-02-28T06:06:13.661Z,91.37
2019-02-28T06:07:13.661Z,91.37
2019-02-28T06:08:13.672Z,91.10
2019-02-28T06:09:14.739Z,91.10
2019-02-28T06:10:13.704Z,91.27
2019-02-28T06:11:15.297Z,92.35
2019-02-28T06:12:13.591Z,91.93
2019-02-28T06:13:15.354Z,91.27
2019-02-28T06:14:13.590Z,91.37
2019-02-28T06:15:13.558Z,91.06
2019-02-28T06:16:13.557Z,90.64
2019-02-28T06:17:13.544Z,90.85
2019-02-28T06:18:13.545Z,90.75
2019-02-28T06:19:13.576Z,91.37
2019-02-28T06:20:16.523Z,90.64
2019-02-28T06:21:13.487Z,90.75
2019-02-28T06:22:13.481Z,91.37
2019-02-28T06:23:13.476Z,91.27
2019-02-28T06:24:13.595Z,91.37
2019-02-28T06:25:22.180Z,90.85
2019-02-28T06:26:14.455Z,91.58
2019-02-28T06:27:13.419Z,90.89
2019-02-28T06:28:13.413Z,91.16
2019-02-28T06:29:13.408Z,90.64
2019-02-28T06:30:13.431Z,91.16
2019-02-28T06:31:14.301Z,90.75
2019-02-28T06:32:13.738Z,91.16
2019-02-28T06:33:13.360Z,90.95
2019-02-28T06:34:13.436Z,91.06
2019-02-28T06:35:15.927Z,91.27
2019-02-28T06:36:13.901Z,91.16
2019-02-28T06:37:13.498Z,91.27
2019-02-28T06:38:16.231Z,91.06
2019-02-28T06:39:14.333Z,90.64
2019-02-28T06:40:13.368Z,90.44
2019-02-28T06:41:13.348Z,90.64
2019-02-28T06:42:13.251Z,90.54
2019-02-28T06:43:14.179Z,90.95
2019-02-28T06:44:13.277Z,90.54
2019-02-28T06:45:13.230Z,90.44
2019-02-28T06:46:13.246Z,90.23
2019-02-28T06:47:14.250Z,90.50
2019-02-28T06:48:13.211Z,89.67
2019-02-28T06:49:13.219Z,89.36
2019-02-28T06:50:13.793Z,89.11
2019-02-28T06:51:13.189Z,89.73
2019-02-28T06:52:13.164Z,88.69
2019-02-28T06:53:13.130Z,87.93
2019-02-28T06:54:13.163Z,88.24
2019-02-28T06:55:13.371Z,88.24
2019-02-28T06:56:13.172Z,88.45
2019-02-28T06:57:13.119Z,86.85
2019-02-28T06:58:13.076Z,87.10
2019-02-28T06:59:13.071Z,87.57
2019-02-28T07:00:14.231Z,86.54
2019-02-28T07:01:13.067Z,86.75
2019-02-28T07:02:13.072Z,86.19
2019-02-28T07:03:13.082Z,85.99
2019-02-28T07:04:14.536Z,84.95
2019-02-28T07:05:13.020Z,84.95
2019-02-28T07:06:13.022Z,85.57
2019-02-28T07:07:13.708Z,85.57
2019-02-28T07:08:13.102Z,85.57
2019-02-28T07:09:12.959Z,85.16
2019-02-28T07:10:13.395Z,85.16
2019-02-28T07:11:12.951Z,84.84
2019-02-28T07:12:13.329Z,84.95
2019-02-28T07:13:12.962Z,84.70
2019-02-28T07:14:13.767Z,84.50
2019-02-28T07:15:12.894Z,84.29
2019-02-28T07:16:12.902Z,83.73
2019-02-28T07:17:12.873Z,83.73
2019-02-28T07:18:12.883Z,83.01
2019-02-28T07:19:12.846Z,83.11
2019-02-28T07:20:12.831Z,82.80
2019-02-28T07:21:12.826Z,82.60
2019-02-28T07:22:19.249Z,82.76
2019-02-28T07:23:13.825Z,82.97
2019-02-28T07:24:13.001Z,82.15
2019-02-28T07:25:13.830Z,81.38
2019-02-28T07:26:12.783Z,81.04
2019-02-28T07:27:12.812Z,80.83
2019-02-28T07:28:12.799Z,80.69
2019-02-28T07:29:12.751Z,79.35
2019-02-28T07:30:17.286Z,79.52
2019-02-28T07:31:13.733Z,78.80
2019-02-28T07:32:12.785Z,78.59
2019-02-28T07:33:12.726Z,79.00
2019-02-28T07:34:12.720Z,78.59
2019-02-28T07:35:12.695Z,77.42
2019-02-28T07:36:12.658Z,77.11
2019-02-28T07:37:12.670Z,77.01
2019-02-28T07:38:12.743Z,77.11
2019-02-28T07:39:12.628Z,76.46
2019-02-28T07:40:16.018Z,76.80
2019-02-28T07:41:12.604Z,77.28
2019-02-28T07:42:12.633Z,76.46
2019-02-28T07:43:13.263Z,76.56
2019-02-28T07:44:12.599Z,77.18
2019-02-28T07:45:12.673Z,77.08
2019-02-28T07:46:12.582Z,76.66
2019-02-28T07:47:17.172Z,76.87
2019-02-28T07:48:12.530Z,76.63
2019-02-28T07:49:12.603Z,75.15
2019-02-28T07:50:12.513Z,73.88
2019-02-28T07:51:12.497Z,74.22
2019-02-28T07:52:12.508Z,74.50
2019-02-28T07:53:12.493Z,74.50
2019-02-28T07:54:15.837Z,74.60
2019-02-28T07:55:12.481Z,72.78
2019-02-28T07:56:12.449Z,72.51
2019-02-28T07:57:17.007Z,72.58
2019-02-28T07:58:13.502Z,72.38
2019-02-28T07:59:12.475Z,72.00
2019-02-28T08:00:16.828Z,72.06
2019-02-28T08:01:13.386Z,71.31
2019-02-28T08:02:12.509Z,69.91
2019-02-28T08:03:12.370Z,69.47
2019-02-28T08:04:12.440Z,69.94
2019-02-28T08:05:12.405Z,69.32
2019-02-28T08:06:12.346Z,69.87
2019-02-28T08:07:14.877Z,70.36
2019-02-28T08:08:13.272Z,69.67
2019-02-28T08:09:12.309Z,69.02
2019-02-28T08:10:12.814Z,68.85
2019-02-28T08:11:12.337Z,68.13
2019-02-28T08:12:12.313Z,70.22
2019-02-28T08:13:12.293Z,69.29
2019-02-28T08:14:12.948Z,69.60
2019-02-28T08:15:13.652Z,69.50
2019-02-28T08:16:12.250Z,70.49
2019-02-28T08:17:12.243Z,71.38
2019-02-28T08:18:12.211Z,70.63
2019-02-28T08:19:12.223Z,70.76
2019-02-28T08:20:12.200Z,70.63
2019-02-28T08:21:12.213Z,69.19
2019-02-28T08:22:12.160Z,69.43
2019-02-28T08:23:12.780Z,68.07
2019-02-28T08:24:12.160Z,68.62
2019-02-28T08:25:12.131Z,69.60
2019-02-28T08:26:15.534Z,72.41
2019-02-28T08:27:13.115Z,76.53
2019-02-28T08:28:12.093Z,79.79
2019-02-28T08:29:12.086Z,80.14
2019-02-28T08:30:12.146Z,81.44
2019-02-28T08:31:12.146Z,80.20
2019-02-28T08:32:12.094Z,81.13
2019-02-28T08:33:12.042Z,81.23
2019-02-28T08:34:12.347Z,80.44
2019-02-28T08:35:12.020Z,81.27
2019-02-28T08:36:12.719Z,81.93
2019-02-28T08:37:11.995Z,82.86
2019-02-28T08:38:11.998Z,82.45
2019-02-28T08:39:12.073Z,82.24
2019-02-28T08:40:12.554Z,82.51
2019-02-28T08:41:11.986Z,81.65
2019-02-28T08:42:12.017Z,80.89
2019-02-28T08:43:13.559Z,80.68
2019-02-28T08:44:12.018Z,80.37
2019-02-28T08:45:11.986Z,81.03
2019-02-28T08:46:13.724Z,80.93
2019-02-28T08:47:11.910Z,80.89
2019-02-28T08:48:12.768Z,80.27
2019-02-28T08:49:11.892Z,80.00
2019-02-28T08:50:11.866Z,81.13
2019-02-28T08:51:11.848Z,81.34
2019-02-28T08:52:12.290Z,80.47
2019-02-28T08:53:12.379Z,79.75
2019-02-28T08:54:11.818Z,80.51
2019-02-28T08:55:11.797Z,80.62
2019-02-28T08:56:14.038Z,80.93
2019-02-28T08:57:13.000Z,81.44
2019-02-28T08:58:11.815Z,81.30
2019-02-28T08:59:12.229Z,81.65
2019-02-28T09:00:11.751Z,81.44
2019-02-28T09:01:12.234Z,81.65
2019-02-28T09:02:14.544Z,81.71
2019-02-28T09:03:12.711Z,81.20
2019-02-28T09:04:11.737Z,81.26
2019-02-28T09:05:11.730Z,80.68
2019-02-28T09:06:11.713Z,80.47
2019-02-28T09:07:14.833Z,81.09
2019-02-28T09:08:14.551Z,81.71
2019-02-28T09:09:11.678Z,81.40
2019-02-28T09:10:12.670Z,81.40
2019-02-28T09:11:11.695Z,81.20
2019-02-28T09:12:11.677Z,81.05
2019-02-28T09:13:11.669Z,80.54
2019-02-28T09:14:14.691Z,80.54
2019-02-28T09:15:12.882Z,80.75
2019-02-28T09:16:11.605Z,80.09
2019-02-28T09:17:11.669Z,79.88
2019-02-28T09:18:12.439Z,79.95
2019-02-28T09:19:11.589Z,79.33
2019-02-28T09:20:11.562Z,78.82
2019-02-28T09:21:15.347Z,77.72
2019-02-28T09:22:11.515Z,76.25
2019-02-28T09:23:11.567Z,75.08
2019-02-28T09:24:12.525Z,74.98
2019-02-28T09:25:22.907Z,73.27
2019-02-28T09:26:16.340Z,74.36
2019-02-28T09:27:12.265Z,74.46
2019-02-28T09:28:13.147Z,72.92
2019-02-28T09:29:11.433Z,70.98
2019-02-28T09:30:11.415Z,68.12
2019-02-28T09:31:11.412Z,68.46
2019-02-28T09:32:13.618Z,69.01
2019-02-28T09:33:11.420Z,65.54
2019-02-28T09:34:11.367Z,66.78
2019-02-28T09:35:14.436Z,67.57
2019-02-28T09:36:11.346Z,66.35
2019-02-28T09:37:11.357Z,68.01
2019-02-28T09:38:13.586Z,66.11
2019-02-28T09:39:12.257Z,65.70
2019-02-28T09:40:11.340Z,65.70
2019-02-28T09:41:11.304Z,68.35
2019-02-28T09:42:14.757Z,68.73
2019-02-28T09:43:11.275Z,68.87
2019-02-28T09:44:11.265Z,69.65
2019-02-28T09:45:11.300Z,70.50
2019-02-28T09:46:12.424Z,71.42
2019-02-28T09:47:11.826Z,71.11
2019-02-28T09:48:11.241Z,70.74
2019-02-28T09:49:12.860Z,70.06
2019-02-28T09:50:11.270Z,70.26
2019-02-28T09:51:11.189Z,68.76
2019-02-28T09:52:11.176Z,69.00
2019-02-28T09:53:15.563Z,70.16
2019-02-28T09:54:11.153Z,70.16
2019-02-28T09:55:11.139Z,68.84
2019-02-28T09:56:11.184Z,66.99
2019-02-28T09:57:11.113Z,66.75
2019-02-28T09:58:11.103Z,68.42
2019-02-28T09:59:11.096Z,67.91
2019-02-28T10:00:11.840Z,66.18
2019-02-28T10:01:11.331Z,66.89
2019-02-28T10:02:11.066Z,68.66
2019-02-28T10:03:11.052Z,67.24
2019-02-28T10:04:11.074Z,64.90
2019-02-28T10:05:11.790Z,63.10
2019-02-28T10:06:16.422Z,60.06
2019-02-28T10:07:11.017Z,59.55
2019-02-28T10:08:11.051Z,61.11
2019-02-28T10:09:11.048Z,59.75
2019-02-28T10:10:10.997Z,61.30
2019-02-28T10:11:11.001Z,64.89
2019-02-28T10:12:11.103Z,65.57
2019-02-28T10:13:10.941Z,65.43
2019-02-28T10:14:12.216Z,67.19
2019-02-28T10:15:10.920Z,68.55
2019-02-28T10:16:13.610Z,68.52
2019-02-28T10:17:11.907Z,65.13
2019-02-28T10:18:10.902Z,63.41
2019-02-28T10:19:13.459Z,64.22
2019-02-28T10:20:10.878Z,65.50
2019-02-28T10:21:10.883Z,67.57
2019-02-28T10:22:12.884Z,66.83
2019-02-28T10:23:10.904Z,64.05
2019-02-28T10:24:10.937Z,62.80
2019-02-28T10:25:10.954Z,60.14
2019-02-28T10:26:10.815Z,58.12
2019-02-28T10:27:26.742Z,55.07
2019-02-28T10:28:10.779Z,54.77
2019-02-28T10:29:10.781Z,55.40
2019-02-28T10:30:15.514Z,55.66
2019-02-28T10:31:11.752Z,56.62
2019-02-28T10:32:10.748Z,55.30
2019-02-28T10:33:17.347Z,55.32
2019-02-28T10:34:10.755Z,56.16
2019-02-28T10:35:10.700Z,54.99
2019-02-28T10:36:13.020Z,56.80
2019-02-28T10:37:10.686Z,63.64
2019-02-28T10:38:10.710Z,63.71
2019-02-28T10:39:10.655Z,63.31
2019-02-28T10:40:10.681Z,64.79
2019-02-28T10:41:10.643Z,64.22
2019-02-28T10:42:10.640Z,61.41
2019-02-28T10:43:12.186Z,63.54
2019-02-28T10:44:11.468Z,64.32
2019-02-28T10:45:10.633Z,61.93
2019-02-28T10:46:13.317Z,60.95
2019-02-28T10:47:11.572Z,60.31
2019-02-28T10:48:10.581Z,60.14
2019-02-28T10:49:39.948Z,59.27
2019-02-28T10:50:10.545Z,58.40
2019-02-28T10:51:13.914Z,58.53
2019-02-28T10:52:10.542Z,56.41
2019-02-28T10:53:10.524Z,55.30
2019-02-28T10:54:14.551Z,55.15
2019-02-28T10:55:10.497Z,55.27
2019-02-28T10:56:10.505Z,55.60
2019-02-28T10:57:10.473Z,57.28
2019-02-28T10:58:12.429Z,57.05
2019-02-28T10:59:11.452Z,56.34
2019-02-28T11:00:10.456Z,55.78
2019-02-28T11:01:10.736Z,54.11
2019-02-28T11:02:13.480Z,53.50
2019-02-28T11:03:11.404Z,54.00
2019-02-28T11:04:10.990Z,52.84
2019-02-28T11:05:10.373Z,53.07
2019-02-28T11:06:10.375Z,53.37
2019-02-28T11:07:26.386Z,54.00
2019-02-28T11:08:12.848Z,54.11
2019-02-28T11:09:10.349Z,51.98
2019-02-28T11:10:10.325Z,50.87
2019-02-28T11:11:10.526Z,50.89
2019-02-28T11:12:10.308Z,51.12
2019-02-28T11:13:10.425Z,54.36
2019-02-28T11:14:10.304Z,53.40
2019-02-28T11:15:13.733Z,54.66
2019-02-28T11:16:10.296Z,54.24
2019-02-28T11:17:13.719Z,53.83
2019-02-28T11:18:10.311Z,54.57
2019-02-28T11:19:18.643Z,57.00
2019-02-28T11:20:10.212Z,57.67
2019-02-28T11:21:10.205Z,60.37
2019-02-28T11:22:10.190Z,61.38
2019-02-28T11:23:14.365Z,61.38
2019-02-28T11:24:10.202Z,60.47
2019-02-28T11:25:10.161Z,60.03
2019-02-28T11:26:10.457Z,59.01
2019-02-28T11:27:10.419Z,60.37
2019-02-28T11:28:10.127Z,58.86
2019-02-28T11:29:10.145Z,58.38
2019-02-28T11:30:10.818Z,59.93
2019-02-28T11:31:11.213Z,60.95
2019-02-28T11:32:10.079Z,60.34
2019-02-28T11:33:10.072Z,61.69
2019-02-28T11:34:11.601Z,60.00
2019-02-28T11:35:10.104Z,59.19
2019-02-28T11:36:10.151Z,60.06
2019-02-28T11:37:10.022Z,60.03
2019-02-28T11:38:10.259Z,61.93
2019-02-28T11:39:20.315Z,63.61
2019-02-28T11:40:09.997Z,64.46
2019-02-28T11:41:09.985Z,64.36
2019-02-28T11:42:09.972Z,65.00
2019-02-28T11:43:09.956Z,65.44
2019-02-28T11:44:12.018Z,65.51
2019-02-28T11:45:09.979Z,65.17
2019-02-28T11:46:09.924Z,65.07
2019-02-28T11:47:11.203Z,65.41
2019-02-28T11:48:09.933Z,65.51
2019-02-28T11:49:09.934Z,66.25
2019-02-28T11:50:09.932Z,66.33
2019-02-28T11:51:09.954Z,65.48
2019-02-28T11:52:09.870Z,65.17
2019-02-28T11:53:09.889Z,65.61
2019-02-28T11:54:12.307Z,67.07
2019-02-28T11:55:09.885Z,67.07
2019-02-28T11:56:09.813Z,66.77
2019-02-28T11:57:09.806Z,67.38
2019-02-28T11:58:09.819Z,66.77
2019-02-28T11:59:09.865Z,67.04
2019-02-28T12:00:09.795Z,66.22
2019-02-28T12:01:10.663Z,66.53
2019-02-28T12:02:09.791Z,66.63
2019-02-28T12:03:09.759Z,66.39
2019-02-28T12:04:09.736Z,65.99
2019-02-28T12:05:12.287Z,66.97
2019-02-28T12:06:10.724Z,67.68
2019-02-28T12:07:09.708Z,67.04
2019-02-28T12:08:10.691Z,66.30
2019-02-28T12:09:09.720Z,65.89
2019-02-28T12:10:09.750Z,66.02
2019-02-28T12:11:09.648Z,66.02
2019-02-28T12:12:10.426Z,66.19
2019-02-28T12:13:09.654Z,65.34
2019-02-28T12:14:09.648Z,65.48
2019-02-28T12:15:09.612Z,66.19
2019-02-28T12:16:09.618Z,66.70
2019-02-28T12:17:09.588Z,66.19
2019-02-28T12:18:09.599Z,65.04
2019-02-28T12:19:12.455Z,65.25
2019-02-28T12:20:10.562Z,65.52
2019-02-28T12:21:09.582Z,64.84
2019-02-28T12:22:12.108Z,64.20
2019-02-28T12:23:09.546Z,64.47
2019-02-28T12:24:09.510Z,63.01
2019-02-28T12:25:09.494Z,63.01
2019-02-28T12:26:09.536Z,63.01
2019-02-28T12:27:09.508Z,61.56
2019-02-28T12:28:09.465Z,61.83
2019-02-28T12:29:12.821Z,61.66
2019-02-28T12:30:09.441Z,60.28
2019-02-28T12:31:09.452Z,59.95
2019-02-28T12:32:11.224Z,59.64
2019-02-28T12:33:09.433Z,59.88
2019-02-28T12:34:09.402Z,60.72
2019-02-28T12:35:09.388Z,60.72
2019-02-28T12:36:11.215Z,60.72
2019-02-28T12:37:09.367Z,60.89
2019-02-28T12:38:09.380Z,59.24
2019-02-28T12:39:09.404Z,59.44
2019-02-28T12:40:10.335Z,60.59
2019-02-28T12:41:09.365Z,60.86
2019-02-28T12:42:09.326Z,58.98
2019-02-28T12:43:09.700Z,56.59
2019-02-28T12:44:09.299Z,57.33
2019-02-28T12:45:09.291Z,56.59
2019-02-28T12:46:09.366Z,56.36
2019-02-28T12:47:09.294Z,57.73
2019-02-28T12:48:09.281Z,58.20
2019-02-28T12:49:09.242Z,58.50
2019-02-28T12:50:09.231Z,58.91
2019-02-28T12:51:09.298Z,57.53
2019-02-28T12:52:11.307Z,58.40